In Rescue
 
Open Full Screen Window  High Contrast Mode
December 15, 2019 7:12 PM EST
Weather Information
Wind Direction
  ---
Wind Speed
  00 kt (0 mph)
Wind Gust
  00 kt (0 mph)
Altimeter
30.15 in
Visibility
10 SM
Temperature
-01° C
30° F
Dewpoint
-04° C
25° F
Humidity
80%
1hr Rain Fall
00.00 in.
24hr Rain Fall
00.00 in.
Sky Condition
Broken @ 9,000 ft
Broken @ 8,000 ft
VFR

METAR KMRT 160012Z AUTO 00000KT 10SM BKN080 BKN090 M01/M04 A3015 RMK AO2 T10101039

FAA Disclaimer: The data displayed is for advisory purposes only and is not to be used for flight planning or operations.